<?xml version="1.0" encoding="UTF-8" standalone="no" ?>
<gpx xmlns="http://www.topografix.com/GPX/1/1" xmlns:xsi="http://www.w3.org/2001/XMLSchema-instance" xsi:schemaLocation="http://www.topografix.com/GPX/1/1 http://www.topografix.com/GPX/1/1/gpx.xsd" version="1.1" creator="VisuGPX - https://www.visugpx.com">
  <metadata>
    <name>Avf reco : St Cézaire sur Siagne - Pont des Tuves</name>
    <desc><![CDATA[St Cézaire sur Siagne - Pont des Tuves
Départ au pont de la Siagne sur D562]]></desc>
  </metadata>
  <trk>
    <name><![CDATA[Pont de tuve]]></name>
    <trkseg>
      <trkpt lat="43.62774" lon="6.81714">
        <ele>147.52</ele>
        <time>2015-05-07T06:59:28Z</time>
      </trkpt>
      <trkpt lat="43.62771" lon="6.81739">
        <ele>125.86</ele>
        <time>2015-05-07T07:00:06Z</time>
      </trkpt>
      <trkpt lat="43.62771" lon="6.8175">
        <ele>123.89</ele>
        <time>2015-05-07T07:00:41Z</time>
      </trkpt>
      <trkpt lat="43.62788" lon="6.81739">
        <ele>110.8</ele>
        <time>2015-05-07T07:01:31Z</time>
      </trkpt>
      <trkpt lat="43.62799" lon="6.81759">
        <ele>109.31</ele>
        <time>2015-05-07T07:01:54Z</time>
      </trkpt>
      <trkpt lat="43.6281" lon="6.81779">
        <ele>105.95</ele>
        <time>2015-05-07T07:02:12Z</time>
      </trkpt>
      <trkpt lat="43.62819" lon="6.81802">
        <ele>103.22</ele>
        <time>2015-05-07T07:02:36Z</time>
      </trkpt>
      <trkpt lat="43.6282" lon="6.81827">
        <ele>101.04</ele>
        <time>2015-05-07T07:02:54Z</time>
      </trkpt>
      <trkpt lat="43.62807" lon="6.81845">
        <ele>99.67</ele>
        <time>2015-05-07T07:03:17Z</time>
      </trkpt>
      <trkpt lat="43.62792" lon="6.81862">
        <ele>100.63</ele>
        <time>2015-05-07T07:03:38Z</time>
      </trkpt>
      <trkpt lat="43.62777" lon="6.81878">
        <ele>104.22</ele>
        <time>2015-05-07T07:03:58Z</time>
      </trkpt>
      <trkpt lat="43.62771" lon="6.81902">
        <ele>105.55</ele>
        <time>2015-05-07T07:04:18Z</time>
      </trkpt>
      <trkpt lat="43.62791" lon="6.81895">
        <ele>102.83</ele>
        <time>2015-05-07T07:04:49Z</time>
      </trkpt>
      <trkpt lat="43.62807" lon="6.81884">
        <ele>102.73</ele>
        <time>2015-05-07T07:05:08Z</time>
      </trkpt>
      <trkpt lat="43.62825" lon="6.81881">
        <ele>106.18</ele>
        <time>2015-05-07T07:05:40Z</time>
      </trkpt>
      <trkpt lat="43.62843" lon="6.81882">
        <ele>107.87</ele>
        <time>2015-05-07T07:05:59Z</time>
      </trkpt>
      <trkpt lat="43.62861" lon="6.81878">
        <ele>109.84</ele>
        <time>2015-05-07T07:06:22Z</time>
      </trkpt>
      <trkpt lat="43.62876" lon="6.81863">
        <ele>107.83</ele>
        <time>2015-05-07T07:06:47Z</time>
      </trkpt>
      <trkpt lat="43.62888" lon="6.81844">
        <ele>109.31</ele>
        <time>2015-05-07T07:07:26Z</time>
      </trkpt>
      <trkpt lat="43.62903" lon="6.81828">
        <ele>112.54</ele>
        <time>2015-05-07T07:07:49Z</time>
      </trkpt>
      <trkpt lat="43.62916" lon="6.81811">
        <ele>114.64</ele>
        <time>2015-05-07T07:08:12Z</time>
      </trkpt>
      <trkpt lat="43.62932" lon="6.81799">
        <ele>117.8</ele>
        <time>2015-05-07T07:08:56Z</time>
      </trkpt>
      <trkpt lat="43.6295" lon="6.81793">
        <ele>122.76</ele>
        <time>2015-05-07T07:09:36Z</time>
      </trkpt>
      <trkpt lat="43.62967" lon="6.81804">
        <ele>131.67</ele>
        <time>2015-05-07T07:10:15Z</time>
      </trkpt>
      <trkpt lat="43.6298" lon="6.81821">
        <ele>135.8</ele>
        <time>2015-05-07T07:11:18Z</time>
      </trkpt>
      <trkpt lat="43.62991" lon="6.81842">
        <ele>140.36</ele>
        <time>2015-05-07T07:11:56Z</time>
      </trkpt>
      <trkpt lat="43.63006" lon="6.81856">
        <ele>141.83</ele>
        <time>2015-05-07T07:12:15Z</time>
      </trkpt>
      <trkpt lat="43.63023" lon="6.81867">
        <ele>144.52</ele>
        <time>2015-05-07T07:12:41Z</time>
      </trkpt>
      <trkpt lat="43.63041" lon="6.81866">
        <ele>143.92</ele>
        <time>2015-05-07T07:13:44Z</time>
      </trkpt>
      <trkpt lat="43.63059" lon="6.81857">
        <ele>143.41</ele>
        <time>2015-05-07T07:14:01Z</time>
      </trkpt>
      <trkpt lat="43.63076" lon="6.81851">
        <ele>139.95</ele>
        <time>2015-05-07T07:14:15Z</time>
      </trkpt>
      <trkpt lat="43.63094" lon="6.81842">
        <ele>137.1</ele>
        <time>2015-05-07T07:14:33Z</time>
      </trkpt>
      <trkpt lat="43.63106" lon="6.81822">
        <ele>134.34</ele>
        <time>2015-05-07T07:14:49Z</time>
      </trkpt>
      <trkpt lat="43.63108" lon="6.81796">
        <ele>133.86</ele>
        <time>2015-05-07T07:15:03Z</time>
      </trkpt>
      <trkpt lat="43.63116" lon="6.81771">
        <ele>134.86</ele>
        <time>2015-05-07T07:15:19Z</time>
      </trkpt>
      <trkpt lat="43.63109" lon="6.81748">
        <ele>135.43</ele>
        <time>2015-05-07T07:16:08Z</time>
      </trkpt>
      <trkpt lat="43.63124" lon="6.81732">
        <ele>137.66</ele>
        <time>2015-05-07T07:17:10Z</time>
      </trkpt>
      <trkpt lat="43.63141" lon="6.8172">
        <ele>137.47</ele>
        <time>2015-05-07T07:17:45Z</time>
      </trkpt>
      <trkpt lat="43.63153" lon="6.81701">
        <ele>137.48</ele>
        <time>2015-05-07T07:18:04Z</time>
      </trkpt>
      <trkpt lat="43.6317" lon="6.81688">
        <ele>137.83</ele>
        <time>2015-05-07T07:18:19Z</time>
      </trkpt>
      <trkpt lat="43.63186" lon="6.81673">
        <ele>138.12</ele>
        <time>2015-05-07T07:18:36Z</time>
      </trkpt>
      <trkpt lat="43.63203" lon="6.81665">
        <ele>136.93</ele>
        <time>2015-05-07T07:18:52Z</time>
      </trkpt>
      <trkpt lat="43.6322" lon="6.81656">
        <ele>135.97</ele>
        <time>2015-05-07T07:19:09Z</time>
      </trkpt>
      <trkpt lat="43.63238" lon="6.81653">
        <ele>135.05</ele>
        <time>2015-05-07T07:19:25Z</time>
      </trkpt>
      <trkpt lat="43.63253" lon="6.81669">
        <ele>138.36</ele>
        <time>2015-05-07T07:19:49Z</time>
      </trkpt>
      <trkpt lat="43.63269" lon="6.81657">
        <ele>138.68</ele>
        <time>2015-05-07T07:20:18Z</time>
      </trkpt>
      <trkpt lat="43.63282" lon="6.81639">
        <ele>139.23</ele>
        <time>2015-05-07T07:20:45Z</time>
      </trkpt>
      <trkpt lat="43.63297" lon="6.81623">
        <ele>148.23</ele>
        <time>2015-05-07T07:22:09Z</time>
      </trkpt>
      <trkpt lat="43.63303" lon="6.816">
        <ele>151.84</ele>
        <time>2015-05-07T07:22:36Z</time>
      </trkpt>
      <trkpt lat="43.63306" lon="6.81575">
        <ele>156.09</ele>
        <time>2015-05-07T07:23:11Z</time>
      </trkpt>
      <trkpt lat="43.63308" lon="6.8155">
        <ele>161.41</ele>
        <time>2015-05-07T07:23:39Z</time>
      </trkpt>
      <trkpt lat="43.6331" lon="6.81524">
        <ele>166.5</ele>
        <time>2015-05-07T07:24:08Z</time>
      </trkpt>
      <trkpt lat="43.63295" lon="6.8151">
        <ele>173.9</ele>
        <time>2015-05-07T07:24:53Z</time>
      </trkpt>
      <trkpt lat="43.63306" lon="6.8149">
        <ele>179</ele>
        <time>2015-05-07T07:29:23Z</time>
      </trkpt>
      <trkpt lat="43.63307" lon="6.81465">
        <ele>182.83</ele>
        <time>2015-05-07T07:29:56Z</time>
      </trkpt>
      <trkpt lat="43.63304" lon="6.81441">
        <ele>186.03</ele>
        <time>2015-05-07T07:30:30Z</time>
      </trkpt>
      <trkpt lat="43.63305" lon="6.81415">
        <ele>187.74</ele>
        <time>2015-05-07T07:30:57Z</time>
      </trkpt>
      <trkpt lat="43.63308" lon="6.8139">
        <ele>190.27</ele>
        <time>2015-05-07T07:31:29Z</time>
      </trkpt>
      <trkpt lat="43.63309" lon="6.81364">
        <ele>193.11</ele>
        <time>2015-05-07T07:32:01Z</time>
      </trkpt>
      <trkpt lat="43.63307" lon="6.81339">
        <ele>193.76</ele>
        <time>2015-05-07T07:32:19Z</time>
      </trkpt>
      <trkpt lat="43.63301" lon="6.81314">
        <ele>195.03</ele>
        <time>2015-05-07T07:32:37Z</time>
      </trkpt>
      <trkpt lat="43.63297" lon="6.81289">
        <ele>195.77</ele>
        <time>2015-05-07T07:32:55Z</time>
      </trkpt>
      <trkpt lat="43.6329" lon="6.81265">
        <ele>198.22</ele>
        <time>2015-05-07T07:33:22Z</time>
      </trkpt>
      <trkpt lat="43.63272" lon="6.81267">
        <ele>196.08</ele>
        <time>2015-05-07T07:34:12Z</time>
      </trkpt>
      <trkpt lat="43.63254" lon="6.81271">
        <ele>191.67</ele>
        <time>2015-05-07T07:34:43Z</time>
      </trkpt>
      <trkpt lat="43.63237" lon="6.8128">
        <ele>188.12</ele>
        <time>2015-05-07T07:35:06Z</time>
      </trkpt>
      <trkpt lat="43.63218" lon="6.81285">
        <ele>185.67</ele>
        <time>2015-05-07T07:35:30Z</time>
      </trkpt>
      <trkpt lat="43.63205" lon="6.81267">
        <ele>181.58</ele>
        <time>2015-05-07T07:36:02Z</time>
      </trkpt>
      <trkpt lat="43.63197" lon="6.81289">
        <ele>172.39</ele>
        <time>2015-05-07T07:38:54Z</time>
      </trkpt>
      <trkpt lat="43.63203" lon="6.81265">
        <ele>169.61</ele>
        <time>2015-05-07T07:41:02Z</time>
      </trkpt>
      <trkpt lat="43.63197" lon="6.81241">
        <ele>169.45</ele>
        <time>2015-05-07T07:41:24Z</time>
      </trkpt>
      <trkpt lat="43.63197" lon="6.81215">
        <ele>169.11</ele>
        <time>2015-05-07T07:41:42Z</time>
      </trkpt>
      <trkpt lat="43.63194" lon="6.8119">
        <ele>168.29</ele>
        <time>2015-05-07T07:41:59Z</time>
      </trkpt>
      <trkpt lat="43.63182" lon="6.81172">
        <ele>168.37</ele>
        <time>2015-05-07T07:42:16Z</time>
      </trkpt>
      <trkpt lat="43.63178" lon="6.81147">
        <ele>167.28</ele>
        <time>2015-05-07T07:42:41Z</time>
      </trkpt>
      <trkpt lat="43.63173" lon="6.81123">
        <ele>168.3</ele>
        <time>2015-05-07T07:42:55Z</time>
      </trkpt>
      <trkpt lat="43.63171" lon="6.81098">
        <ele>166.89</ele>
        <time>2015-05-07T07:43:38Z</time>
      </trkpt>
      <trkpt lat="43.6317" lon="6.81073">
        <ele>166.64</ele>
        <time>2015-05-07T07:44:02Z</time>
      </trkpt>
      <trkpt lat="43.63163" lon="6.81048">
        <ele>166.27</ele>
        <time>2015-05-07T07:44:17Z</time>
      </trkpt>
      <trkpt lat="43.63157" lon="6.81025">
        <ele>166.43</ele>
        <time>2015-05-07T07:44:39Z</time>
      </trkpt>
      <trkpt lat="43.63154" lon="6.81">
        <ele>168.08</ele>
        <time>2015-05-07T07:44:59Z</time>
      </trkpt>
      <trkpt lat="43.63152" lon="6.80975">
        <ele>167.34</ele>
        <time>2015-05-07T07:45:24Z</time>
      </trkpt>
      <trkpt lat="43.63138" lon="6.80959">
        <ele>168.53</ele>
        <time>2015-05-07T07:48:30Z</time>
      </trkpt>
      <trkpt lat="43.63151" lon="6.80942">
        <ele>166.44</ele>
        <time>2015-05-07T07:50:20Z</time>
      </trkpt>
      <trkpt lat="43.63143" lon="6.8092">
        <ele>165.38</ele>
        <time>2015-05-07T07:50:55Z</time>
      </trkpt>
      <trkpt lat="43.63133" lon="6.80898">
        <ele>165.45</ele>
        <time>2015-05-07T07:51:30Z</time>
      </trkpt>
      <trkpt lat="43.6313" lon="6.80873">
        <ele>165.45</ele>
        <time>2015-05-07T07:52:00Z</time>
      </trkpt>
      <trkpt lat="43.63127" lon="6.80848">
        <ele>168.28</ele>
        <time>2015-05-07T07:52:33Z</time>
      </trkpt>
      <trkpt lat="43.63113" lon="6.80829">
        <ele>169.51</ele>
        <time>2015-05-07T07:52:53Z</time>
      </trkpt>
      <trkpt lat="43.63098" lon="6.80814">
        <ele>172</ele>
        <time>2015-05-07T07:53:10Z</time>
      </trkpt>
      <trkpt lat="43.63092" lon="6.8079">
        <ele>173.13</ele>
        <time>2015-05-07T07:53:28Z</time>
      </trkpt>
      <trkpt lat="43.63081" lon="6.80771">
        <ele>174.42</ele>
        <time>2015-05-07T07:53:50Z</time>
      </trkpt>
      <trkpt lat="43.63064" lon="6.8076">
        <ele>175.36</ele>
        <time>2015-05-07T07:54:08Z</time>
      </trkpt>
      <trkpt lat="43.63048" lon="6.80744">
        <ele>175.57</ele>
        <time>2015-05-07T07:54:24Z</time>
      </trkpt>
      <trkpt lat="43.63038" lon="6.80723">
        <ele>176.98</ele>
        <time>2015-05-07T07:54:43Z</time>
      </trkpt>
      <trkpt lat="43.6303" lon="6.807">
        <ele>176</ele>
        <time>2015-05-07T07:54:58Z</time>
      </trkpt>
      <trkpt lat="43.63024" lon="6.80676">
        <ele>175.62</ele>
        <time>2015-05-07T07:55:15Z</time>
      </trkpt>
      <trkpt lat="43.63024" lon="6.80651">
        <ele>175.34</ele>
        <time>2015-05-07T07:55:30Z</time>
      </trkpt>
      <trkpt lat="43.63017" lon="6.80628">
        <ele>175.57</ele>
        <time>2015-05-07T07:55:50Z</time>
      </trkpt>
      <trkpt lat="43.63008" lon="6.80606">
        <ele>176.18</ele>
        <time>2015-05-07T07:56:25Z</time>
      </trkpt>
      <trkpt lat="43.63003" lon="6.8058">
        <ele>176.72</ele>
        <time>2015-05-07T07:56:40Z</time>
      </trkpt>
      <trkpt lat="43.62997" lon="6.80556">
        <ele>177.89</ele>
        <time>2015-05-07T07:56:55Z</time>
      </trkpt>
      <trkpt lat="43.62994" lon="6.80531">
        <ele>177.37</ele>
        <time>2015-05-07T07:57:12Z</time>
      </trkpt>
      <trkpt lat="43.62983" lon="6.8051">
        <ele>176.62</ele>
        <time>2015-05-07T07:57:28Z</time>
      </trkpt>
      <trkpt lat="43.62968" lon="6.80496">
        <ele>176.31</ele>
        <time>2015-05-07T07:57:44Z</time>
      </trkpt>
      <trkpt lat="43.62957" lon="6.80476">
        <ele>174.75</ele>
        <time>2015-05-07T07:58:02Z</time>
      </trkpt>
      <trkpt lat="43.62947" lon="6.80454">
        <ele>174.02</ele>
        <time>2015-05-07T07:58:18Z</time>
      </trkpt>
      <trkpt lat="43.62938" lon="6.80432">
        <ele>174.09</ele>
        <time>2015-05-07T07:58:35Z</time>
      </trkpt>
      <trkpt lat="43.6293" lon="6.80409">
        <ele>174.36</ele>
        <time>2015-05-07T07:58:51Z</time>
      </trkpt>
      <trkpt lat="43.62918" lon="6.8039">
        <ele>174.21</ele>
        <time>2015-05-07T07:59:10Z</time>
      </trkpt>
      <trkpt lat="43.62907" lon="6.80369">
        <ele>174.24</ele>
        <time>2015-05-07T07:59:25Z</time>
      </trkpt>
      <trkpt lat="43.62896" lon="6.8035">
        <ele>175.11</ele>
        <time>2015-05-07T07:59:41Z</time>
      </trkpt>
      <trkpt lat="43.6289" lon="6.80326">
        <ele>175.37</ele>
        <time>2015-05-07T08:00:07Z</time>
      </trkpt>
      <trkpt lat="43.62889" lon="6.80299">
        <ele>175.57</ele>
        <time>2015-05-07T08:00:24Z</time>
      </trkpt>
      <trkpt lat="43.62891" lon="6.80272">
        <ele>176.2</ele>
        <time>2015-05-07T08:00:43Z</time>
      </trkpt>
      <trkpt lat="43.62893" lon="6.80246">
        <ele>175.94</ele>
        <time>2015-05-07T08:01:01Z</time>
      </trkpt>
      <trkpt lat="43.62893" lon="6.8022">
        <ele>175.69</ele>
        <time>2015-05-07T08:01:19Z</time>
      </trkpt>
      <trkpt lat="43.62876" lon="6.8021">
        <ele>173.85</ele>
        <time>2015-05-07T08:02:03Z</time>
      </trkpt>
      <trkpt lat="43.62864" lon="6.80192">
        <ele>169.87</ele>
        <time>2015-05-07T08:02:29Z</time>
      </trkpt>
      <trkpt lat="43.62853" lon="6.80173">
        <ele>166.92</ele>
        <time>2015-05-07T08:02:57Z</time>
      </trkpt>
      <trkpt lat="43.62839" lon="6.80155">
        <ele>164.96</ele>
        <time>2015-05-07T08:03:15Z</time>
      </trkpt>
      <trkpt lat="43.62849" lon="6.80134">
        <ele>165.05</ele>
        <time>2015-05-07T08:04:47Z</time>
      </trkpt>
      <trkpt lat="43.62832" lon="6.80146">
        <ele>164.99</ele>
        <time>2015-05-07T08:05:09Z</time>
      </trkpt>
      <trkpt lat="43.62838" lon="6.80122">
        <ele>158.42</ele>
        <time>2015-05-07T08:07:50Z</time>
      </trkpt>
      <trkpt lat="43.62842" lon="6.80146">
        <ele>155.68</ele>
        <time>2015-05-07T08:08:58Z</time>
      </trkpt>
      <trkpt lat="43.62851" lon="6.80168">
        <ele>154.96</ele>
        <time>2015-05-07T08:09:11Z</time>
      </trkpt>
      <trkpt lat="43.62864" lon="6.80187">
        <ele>154.44</ele>
        <time>2015-05-07T08:09:37Z</time>
      </trkpt>
      <trkpt lat="43.62877" lon="6.80204">
        <ele>157.48</ele>
        <time>2015-05-07T08:10:11Z</time>
      </trkpt>
      <trkpt lat="43.62895" lon="6.80205">
        <ele>160.85</ele>
        <time>2015-05-07T08:10:53Z</time>
      </trkpt>
      <trkpt lat="43.62913" lon="6.80204">
        <ele>168.14</ele>
        <time>2015-05-07T08:11:41Z</time>
      </trkpt>
      <trkpt lat="43.62932" lon="6.80204">
        <ele>174.21</ele>
        <time>2015-05-07T08:12:27Z</time>
      </trkpt>
      <trkpt lat="43.62938" lon="6.80181">
        <ele>180.06</ele>
        <time>2015-05-07T08:12:57Z</time>
      </trkpt>
      <trkpt lat="43.62934" lon="6.80156">
        <ele>183.99</ele>
        <time>2015-05-07T08:13:29Z</time>
      </trkpt>
      <trkpt lat="43.62947" lon="6.80139">
        <ele>188.86</ele>
        <time>2015-05-07T08:14:06Z</time>
      </trkpt>
      <trkpt lat="43.62942" lon="6.80115">
        <ele>196.09</ele>
        <time>2015-05-07T08:16:41Z</time>
      </trkpt>
      <trkpt lat="43.62959" lon="6.80123">
        <ele>196.51</ele>
        <time>2015-05-07T08:17:55Z</time>
      </trkpt>
      <trkpt lat="43.6297" lon="6.80102">
        <ele>199.54</ele>
        <time>2015-05-07T08:18:26Z</time>
      </trkpt>
      <trkpt lat="43.62972" lon="6.80077">
        <ele>201.45</ele>
        <time>2015-05-07T08:18:45Z</time>
      </trkpt>
      <trkpt lat="43.62974" lon="6.80051">
        <ele>202.76</ele>
        <time>2015-05-07T08:19:13Z</time>
      </trkpt>
      <trkpt lat="43.62984" lon="6.80031">
        <ele>201.89</ele>
        <time>2015-05-07T08:19:33Z</time>
      </trkpt>
      <trkpt lat="43.63002" lon="6.80022">
        <ele>202.94</ele>
        <time>2015-05-07T08:19:58Z</time>
      </trkpt>
      <trkpt lat="43.63019" lon="6.80013">
        <ele>202.06</ele>
        <time>2015-05-07T08:20:16Z</time>
      </trkpt>
      <trkpt lat="43.63036" lon="6.80001">
        <ele>201.7</ele>
        <time>2015-05-07T08:20:36Z</time>
      </trkpt>
      <trkpt lat="43.63054" lon="6.79993">
        <ele>200.16</ele>
        <time>2015-05-07T08:20:54Z</time>
      </trkpt>
      <trkpt lat="43.63067" lon="6.79974">
        <ele>198.19</ele>
        <time>2015-05-07T08:21:14Z</time>
      </trkpt>
      <trkpt lat="43.63078" lon="6.79954">
        <ele>196.15</ele>
        <time>2015-05-07T08:21:38Z</time>
      </trkpt>
      <trkpt lat="43.63095" lon="6.79945">
        <ele>193.69</ele>
        <time>2015-05-07T08:21:58Z</time>
      </trkpt>
      <trkpt lat="43.63113" lon="6.79946">
        <ele>192.31</ele>
        <time>2015-05-07T08:22:23Z</time>
      </trkpt>
      <trkpt lat="43.63128" lon="6.79931">
        <ele>193.74</ele>
        <time>2015-05-07T08:23:37Z</time>
      </trkpt>
      <trkpt lat="43.63146" lon="6.79931">
        <ele>192.67</ele>
        <time>2015-05-07T08:23:58Z</time>
      </trkpt>
      <trkpt lat="43.63162" lon="6.7992">
        <ele>190.96</ele>
        <time>2015-05-07T08:24:42Z</time>
      </trkpt>
      <trkpt lat="43.63178" lon="6.79907">
        <ele>191.08</ele>
        <time>2015-05-07T08:25:15Z</time>
      </trkpt>
      <trkpt lat="43.63195" lon="6.79898">
        <ele>191.13</ele>
        <time>2015-05-07T08:25:59Z</time>
      </trkpt>
      <trkpt lat="43.63213" lon="6.79895">
        <ele>194.06</ele>
        <time>2015-05-07T08:26:32Z</time>
      </trkpt>
      <trkpt lat="43.63229" lon="6.79882">
        <ele>197.67</ele>
        <time>2015-05-07T08:27:02Z</time>
      </trkpt>
      <trkpt lat="43.63244" lon="6.79867">
        <ele>198.43</ele>
        <time>2015-05-07T08:27:25Z</time>
      </trkpt>
      <trkpt lat="43.63256" lon="6.79848">
        <ele>198.64</ele>
        <time>2015-05-07T08:27:52Z</time>
      </trkpt>
      <trkpt lat="43.63262" lon="6.79824">
        <ele>196.23</ele>
        <time>2015-05-07T08:28:31Z</time>
      </trkpt>
      <trkpt lat="43.63272" lon="6.79803">
        <ele>192.54</ele>
        <time>2015-05-07T08:28:47Z</time>
      </trkpt>
      <trkpt lat="43.63277" lon="6.79779">
        <ele>193.21</ele>
        <time>2015-05-07T08:29:15Z</time>
      </trkpt>
      <trkpt lat="43.63292" lon="6.79763">
        <ele>193.51</ele>
        <time>2015-05-07T08:29:36Z</time>
      </trkpt>
      <trkpt lat="43.63307" lon="6.79749">
        <ele>196.1</ele>
        <time>2015-05-07T08:30:02Z</time>
      </trkpt>
      <trkpt lat="43.63321" lon="6.79733">
        <ele>198.09</ele>
        <time>2015-05-07T08:31:17Z</time>
      </trkpt>
      <trkpt lat="43.6334" lon="6.79731">
        <ele>202.13</ele>
        <time>2015-05-07T08:31:55Z</time>
      </trkpt>
      <trkpt lat="43.63351" lon="6.7971">
        <ele>210.19</ele>
        <time>2015-05-07T08:35:28Z</time>
      </trkpt>
      <trkpt lat="43.63368" lon="6.79699">
        <ele>214.01</ele>
        <time>2015-05-07T08:36:16Z</time>
      </trkpt>
      <trkpt lat="43.63381" lon="6.79682">
        <ele>212.59</ele>
        <time>2015-05-07T08:36:56Z</time>
      </trkpt>
      <trkpt lat="43.6339" lon="6.79659">
        <ele>211.93</ele>
        <time>2015-05-07T08:37:21Z</time>
      </trkpt>
      <trkpt lat="43.63409" lon="6.79655">
        <ele>214.85</ele>
        <time>2015-05-07T08:38:02Z</time>
      </trkpt>
      <trkpt lat="43.63413" lon="6.79679">
        <ele>232.41</ele>
        <time>2015-05-07T08:41:26Z</time>
      </trkpt>
      <trkpt lat="43.63431" lon="6.79675">
        <ele>232.39</ele>
        <time>2015-05-07T08:42:42Z</time>
      </trkpt>
      <trkpt lat="43.63447" lon="6.79663">
        <ele>235.54</ele>
        <time>2015-05-07T08:43:12Z</time>
      </trkpt>
      <trkpt lat="43.63465" lon="6.79656">
        <ele>240.16</ele>
        <time>2015-05-07T08:43:46Z</time>
      </trkpt>
      <trkpt lat="43.63482" lon="6.79645">
        <ele>243.48</ele>
        <time>2015-05-07T08:44:34Z</time>
      </trkpt>
      <trkpt lat="43.635" lon="6.7964">
        <ele>246.33</ele>
        <time>2015-05-07T08:44:57Z</time>
      </trkpt>
      <trkpt lat="43.63518" lon="6.79632">
        <ele>250.02</ele>
        <time>2015-05-07T08:45:19Z</time>
      </trkpt>
      <trkpt lat="43.63531" lon="6.79613">
        <ele>254.04</ele>
        <time>2015-05-07T08:45:43Z</time>
      </trkpt>
      <trkpt lat="43.63549" lon="6.79612">
        <ele>258.84</ele>
        <time>2015-05-07T08:46:19Z</time>
      </trkpt>
      <trkpt lat="43.63561" lon="6.7963">
        <ele>257.4</ele>
        <time>2015-05-07T08:47:26Z</time>
      </trkpt>
      <trkpt lat="43.63576" lon="6.79645">
        <ele>258.48</ele>
        <time>2015-05-07T08:47:57Z</time>
      </trkpt>
      <trkpt lat="43.63593" lon="6.79655">
        <ele>260.34</ele>
        <time>2015-05-07T08:48:18Z</time>
      </trkpt>
      <trkpt lat="43.63607" lon="6.79673">
        <ele>260.83</ele>
        <time>2015-05-07T08:48:37Z</time>
      </trkpt>
      <trkpt lat="43.63624" lon="6.7968">
        <ele>261.95</ele>
        <time>2015-05-07T08:48:59Z</time>
      </trkpt>
      <trkpt lat="43.63641" lon="6.7969">
        <ele>263.9</ele>
        <time>2015-05-07T08:49:20Z</time>
      </trkpt>
      <trkpt lat="43.63658" lon="6.797">
        <ele>265.71</ele>
        <time>2015-05-07T08:49:41Z</time>
      </trkpt>
      <trkpt lat="43.63675" lon="6.79713">
        <ele>267.63</ele>
        <time>2015-05-07T08:50:17Z</time>
      </trkpt>
      <trkpt lat="43.63688" lon="6.79731">
        <ele>268.88</ele>
        <time>2015-05-07T08:50:38Z</time>
      </trkpt>
      <trkpt lat="43.63702" lon="6.79746">
        <ele>270.14</ele>
        <time>2015-05-07T08:50:57Z</time>
      </trkpt>
      <trkpt lat="43.63715" lon="6.79765">
        <ele>270.7</ele>
        <time>2015-05-07T08:51:14Z</time>
      </trkpt>
      <trkpt lat="43.63732" lon="6.79774">
        <ele>269.89</ele>
        <time>2015-05-07T08:51:33Z</time>
      </trkpt>
      <trkpt lat="43.63749" lon="6.79782">
        <ele>269.78</ele>
        <time>2015-05-07T08:51:51Z</time>
      </trkpt>
      <trkpt lat="43.63768" lon="6.79781">
        <ele>269.86</ele>
        <time>2015-05-07T08:52:15Z</time>
      </trkpt>
      <trkpt lat="43.63784" lon="6.79767">
        <ele>270.02</ele>
        <time>2015-05-07T08:52:32Z</time>
      </trkpt>
      <trkpt lat="43.638" lon="6.79754">
        <ele>269.11</ele>
        <time>2015-05-07T08:52:50Z</time>
      </trkpt>
      <trkpt lat="43.63817" lon="6.79743">
        <ele>268.45</ele>
        <time>2015-05-07T08:53:07Z</time>
      </trkpt>
      <trkpt lat="43.63834" lon="6.79752">
        <ele>270.59</ele>
        <time>2015-05-07T08:53:58Z</time>
      </trkpt>
      <trkpt lat="43.6385" lon="6.79766">
        <ele>275.09</ele>
        <time>2015-05-07T08:54:27Z</time>
      </trkpt>
      <trkpt lat="43.63864" lon="6.79781">
        <ele>278.56</ele>
        <time>2015-05-07T08:54:50Z</time>
      </trkpt>
      <trkpt lat="43.63882" lon="6.79788">
        <ele>283.7</ele>
        <time>2015-05-07T08:55:18Z</time>
      </trkpt>
      <trkpt lat="43.63897" lon="6.79775">
        <ele>283.93</ele>
        <time>2015-05-07T08:56:46Z</time>
      </trkpt>
      <trkpt lat="43.63909" lon="6.79754">
        <ele>285.85</ele>
        <time>2015-05-07T08:57:21Z</time>
      </trkpt>
      <trkpt lat="43.63927" lon="6.79747">
        <ele>287.12</ele>
        <time>2015-05-07T08:57:36Z</time>
      </trkpt>
      <trkpt lat="43.63944" lon="6.79738">
        <ele>290.17</ele>
        <time>2015-05-07T08:58:01Z</time>
      </trkpt>
      <trkpt lat="43.63961" lon="6.79726">
        <ele>289.68</ele>
        <time>2015-05-07T08:58:19Z</time>
      </trkpt>
      <trkpt lat="43.63973" lon="6.79707">
        <ele>290</ele>
        <time>2015-05-07T08:58:36Z</time>
      </trkpt>
      <trkpt lat="43.63983" lon="6.79686">
        <ele>289.44</ele>
        <time>2015-05-07T08:59:10Z</time>
      </trkpt>
      <trkpt lat="43.63995" lon="6.79668">
        <ele>286.24</ele>
        <time>2015-05-07T08:59:39Z</time>
      </trkpt>
      <trkpt lat="43.64013" lon="6.79659">
        <ele>285.53</ele>
        <time>2015-05-07T09:01:33Z</time>
      </trkpt>
      <trkpt lat="43.6403" lon="6.79649">
        <ele>287.38</ele>
        <time>2015-05-07T09:02:03Z</time>
      </trkpt>
      <trkpt lat="43.64043" lon="6.7963">
        <ele>285.39</ele>
        <time>2015-05-07T09:02:31Z</time>
      </trkpt>
      <trkpt lat="43.64053" lon="6.79609">
        <ele>282.59</ele>
        <time>2015-05-07T09:02:57Z</time>
      </trkpt>
      <trkpt lat="43.64068" lon="6.79596">
        <ele>280.4</ele>
        <time>2015-05-07T09:03:23Z</time>
      </trkpt>
      <trkpt lat="43.64078" lon="6.79575">
        <ele>272.23</ele>
        <time>2015-05-07T09:04:48Z</time>
      </trkpt>
      <trkpt lat="43.64093" lon="6.79561">
        <ele>270.45</ele>
        <time>2015-05-07T09:05:14Z</time>
      </trkpt>
      <trkpt lat="43.64106" lon="6.79544">
        <ele>265.6</ele>
        <time>2015-05-07T09:06:03Z</time>
      </trkpt>
      <trkpt lat="43.64102" lon="6.7952">
        <ele>254.43</ele>
        <time>2015-05-07T09:07:29Z</time>
      </trkpt>
      <trkpt lat="43.64118" lon="6.79506">
        <ele>250.27</ele>
        <time>2015-05-07T09:08:03Z</time>
      </trkpt>
      <trkpt lat="43.64136" lon="6.795">
        <ele>245.61</ele>
        <time>2015-05-07T09:09:11Z</time>
      </trkpt>
      <trkpt lat="43.64147" lon="6.7948">
        <ele>242.36</ele>
        <time>2015-05-07T09:09:45Z</time>
      </trkpt>
      <trkpt lat="43.64153" lon="6.79456">
        <ele>241.09</ele>
        <time>2015-05-07T09:10:16Z</time>
      </trkpt>
      <trkpt lat="43.64161" lon="6.79433">
        <ele>238.68</ele>
        <time>2015-05-07T09:10:39Z</time>
      </trkpt>
      <trkpt lat="43.64162" lon="6.79408">
        <ele>234.36</ele>
        <time>2015-05-07T09:11:55Z</time>
      </trkpt>
      <trkpt lat="43.64173" lon="6.79388">
        <ele>226.92</ele>
        <time>2015-05-07T09:12:53Z</time>
      </trkpt>
      <trkpt lat="43.64184" lon="6.79367">
        <ele>215.82</ele>
        <time>2015-05-07T09:14:16Z</time>
      </trkpt>
      <trkpt lat="43.64199" lon="6.79351">
        <ele>206.19</ele>
        <time>2015-05-07T09:16:00Z</time>
      </trkpt>
      <trkpt lat="43.64208" lon="6.7933">
        <ele>203.28</ele>
        <time>2015-05-07T09:16:52Z</time>
      </trkpt>
      <trkpt lat="43.64217" lon="6.79307">
        <ele>194.25</ele>
        <time>2015-05-07T09:17:29Z</time>
      </trkpt>
      <trkpt lat="43.64227" lon="6.79287">
        <ele>192.85</ele>
        <time>2015-05-07T09:17:52Z</time>
      </trkpt>
      <trkpt lat="43.64238" lon="6.79265">
        <ele>192.53</ele>
        <time>2015-05-07T09:18:11Z</time>
      </trkpt>
      <trkpt lat="43.64247" lon="6.79243">
        <ele>193.13</ele>
        <time>2015-05-07T09:18:30Z</time>
      </trkpt>
      <trkpt lat="43.6425" lon="6.79218">
        <ele>192.2</ele>
        <time>2015-05-07T09:18:49Z</time>
      </trkpt>
      <trkpt lat="43.64267" lon="6.7921">
        <ele>185.83</ele>
        <time>2015-05-07T09:19:36Z</time>
      </trkpt>
      <trkpt lat="43.64286" lon="6.79208">
        <ele>183.99</ele>
        <time>2015-05-07T09:20:08Z</time>
      </trkpt>
      <trkpt lat="43.64294" lon="6.79186">
        <ele>181.35</ele>
        <time>2015-05-07T09:21:22Z</time>
      </trkpt>
      <trkpt lat="43.64308" lon="6.79168">
        <ele>181.03</ele>
        <time>2015-05-07T09:22:03Z</time>
      </trkpt>
      <trkpt lat="43.64319" lon="6.79147">
        <ele>181.02</ele>
        <time>2015-05-07T09:22:34Z</time>
      </trkpt>
      <trkpt lat="43.64325" lon="6.79124">
        <ele>174.55</ele>
        <time>2015-05-07T09:23:52Z</time>
      </trkpt>
      <trkpt lat="43.64341" lon="6.79111">
        <ele>172.06</ele>
        <time>2015-05-07T09:24:40Z</time>
      </trkpt>
      <trkpt lat="43.64349" lon="6.79088">
        <ele>173.62</ele>
        <time>2015-05-07T09:25:46Z</time>
      </trkpt>
      <trkpt lat="43.64359" lon="6.79068">
        <ele>170.79</ele>
        <time>2015-05-07T09:26:25Z</time>
      </trkpt>
      <trkpt lat="43.64345" lon="6.79052">
        <ele>173.33</ele>
        <time>2015-05-07T09:27:15Z</time>
      </trkpt>
      <trkpt lat="43.64355" lon="6.79073">
        <ele>172.19</ele>
        <time>2015-05-07T09:28:52Z</time>
      </trkpt>
      <trkpt lat="43.64348" lon="6.7905">
        <ele>161.77</ele>
        <time>2015-05-07T09:34:20Z</time>
      </trkpt>
      <trkpt lat="43.64336" lon="6.79031">
        <ele>167.91</ele>
        <time>2015-05-07T09:37:48Z</time>
      </trkpt>
      <trkpt lat="43.64326" lon="6.7901">
        <ele>168.38</ele>
        <time>2015-05-07T09:38:56Z</time>
      </trkpt>
      <trkpt lat="43.64315" lon="6.7899">
        <ele>170.58</ele>
        <time>2015-05-07T09:39:47Z</time>
      </trkpt>
      <trkpt lat="43.643" lon="6.78975">
        <ele>172.24</ele>
        <time>2015-05-07T09:41:04Z</time>
      </trkpt>
      <trkpt lat="43.64293" lon="6.78997">
        <ele>175.51</ele>
        <time>2015-05-07T09:43:21Z</time>
      </trkpt>
      <trkpt lat="43.64284" lon="6.79019">
        <ele>177.98</ele>
        <time>2015-05-07T09:44:14Z</time>
      </trkpt>
      <trkpt lat="43.6427" lon="6.79035">
        <ele>180.49</ele>
        <time>2015-05-07T09:44:42Z</time>
      </trkpt>
      <trkpt lat="43.64253" lon="6.79047">
        <ele>182.81</ele>
        <time>2015-05-07T09:45:24Z</time>
      </trkpt>
      <trkpt lat="43.64237" lon="6.79056">
        <ele>182.45</ele>
        <time>2015-05-07T09:46:16Z</time>
      </trkpt>
      <trkpt lat="43.64218" lon="6.79055">
        <ele>182.57</ele>
        <time>2015-05-07T09:47:00Z</time>
      </trkpt>
      <trkpt lat="43.64204" lon="6.79072">
        <ele>181.61</ele>
        <time>2015-05-07T09:47:43Z</time>
      </trkpt>
      <trkpt lat="43.64191" lon="6.79089">
        <ele>179.97</ele>
        <time>2015-05-07T09:47:59Z</time>
      </trkpt>
      <trkpt lat="43.64173" lon="6.79096">
        <ele>180.6</ele>
        <time>2015-05-07T09:48:23Z</time>
      </trkpt>
      <trkpt lat="43.64165" lon="6.79099">
        <ele>179.75</ele>
        <time>2015-05-07T09:50:45Z</time>
      </trkpt>
      <trkpt lat="43.64148" lon="6.79115">
        <ele>178.72</ele>
        <time>2015-05-07T09:51:09Z</time>
      </trkpt>
      <trkpt lat="43.64136" lon="6.79133">
        <ele>176.87</ele>
        <time>2015-05-07T09:51:21Z</time>
      </trkpt>
      <trkpt lat="43.64124" lon="6.79154">
        <ele>175.06</ele>
        <time>2015-05-07T09:51:42Z</time>
      </trkpt>
      <trkpt lat="43.64115" lon="6.79176">
        <ele>174.93</ele>
        <time>2015-05-07T09:51:59Z</time>
      </trkpt>
      <trkpt lat="43.641" lon="6.79191">
        <ele>173.16</ele>
        <time>2015-05-07T09:52:17Z</time>
      </trkpt>
      <trkpt lat="43.64082" lon="6.79189">
        <ele>174.75</ele>
        <time>2015-05-07T09:56:53Z</time>
      </trkpt>
      <trkpt lat="43.64074" lon="6.79206">
        <ele>177.29</ele>
        <time>2015-05-07T10:14:59Z</time>
      </trkpt>
      <trkpt lat="43.64058" lon="6.7922">
        <ele>180.03</ele>
        <time>2015-05-07T10:15:21Z</time>
      </trkpt>
      <trkpt lat="43.64046" lon="6.79239">
        <ele>179.66</ele>
        <time>2015-05-07T10:15:35Z</time>
      </trkpt>
      <trkpt lat="43.64034" lon="6.79261">
        <ele>179.28</ele>
        <time>2015-05-07T10:15:47Z</time>
      </trkpt>
      <trkpt lat="43.64018" lon="6.79272">
        <ele>178.36</ele>
        <time>2015-05-07T10:16:09Z</time>
      </trkpt>
      <trkpt lat="43.64003" lon="6.79287">
        <ele>178.83</ele>
        <time>2015-05-07T10:16:36Z</time>
      </trkpt>
      <trkpt lat="43.63987" lon="6.793">
        <ele>177.83</ele>
        <time>2015-05-07T10:16:46Z</time>
      </trkpt>
      <trkpt lat="43.63968" lon="6.79304">
        <ele>174.28</ele>
        <time>2015-05-07T10:17:02Z</time>
      </trkpt>
      <trkpt lat="43.63952" lon="6.79315">
        <ele>167.6</ele>
        <time>2015-05-07T10:17:20Z</time>
      </trkpt>
      <trkpt lat="43.63936" lon="6.79327">
        <ele>165.08</ele>
        <time>2015-05-07T10:17:41Z</time>
      </trkpt>
      <trkpt lat="43.63917" lon="6.79327">
        <ele>167.69</ele>
        <time>2015-05-07T10:18:04Z</time>
      </trkpt>
      <trkpt lat="43.63898" lon="6.79329">
        <ele>169.72</ele>
        <time>2015-05-07T10:18:20Z</time>
      </trkpt>
      <trkpt lat="43.6388" lon="6.79336">
        <ele>169.74</ele>
        <time>2015-05-07T10:18:34Z</time>
      </trkpt>
      <trkpt lat="43.63862" lon="6.79345">
        <ele>167.07</ele>
        <time>2015-05-07T10:18:48Z</time>
      </trkpt>
      <trkpt lat="43.63845" lon="6.79337">
        <ele>166.55</ele>
        <time>2015-05-07T10:19:04Z</time>
      </trkpt>
      <trkpt lat="43.63826" lon="6.79338">
        <ele>166.26</ele>
        <time>2015-05-07T10:19:22Z</time>
      </trkpt>
      <trkpt lat="43.63808" lon="6.79344">
        <ele>163.42</ele>
        <time>2015-05-07T10:19:39Z</time>
      </trkpt>
      <trkpt lat="43.6379" lon="6.79348">
        <ele>162.78</ele>
        <time>2015-05-07T10:19:55Z</time>
      </trkpt>
      <trkpt lat="43.63772" lon="6.79354">
        <ele>161.88</ele>
        <time>2015-05-07T10:20:12Z</time>
      </trkpt>
      <trkpt lat="43.63754" lon="6.79361">
        <ele>160.11</ele>
        <time>2015-05-07T10:20:30Z</time>
      </trkpt>
      <trkpt lat="43.63736" lon="6.79363">
        <ele>157.78</ele>
        <time>2015-05-07T10:20:48Z</time>
      </trkpt>
      <trkpt lat="43.63718" lon="6.7937">
        <ele>156.31</ele>
        <time>2015-05-07T10:21:07Z</time>
      </trkpt>
      <trkpt lat="43.637" lon="6.79368">
        <ele>155.74</ele>
        <time>2015-05-07T10:21:26Z</time>
      </trkpt>
      <trkpt lat="43.63681" lon="6.79368">
        <ele>153.97</ele>
        <time>2015-05-07T10:21:42Z</time>
      </trkpt>
      <trkpt lat="43.63663" lon="6.79373">
        <ele>152.27</ele>
        <time>2015-05-07T10:21:59Z</time>
      </trkpt>
      <trkpt lat="43.63644" lon="6.79375">
        <ele>152.83</ele>
        <time>2015-05-07T10:22:24Z</time>
      </trkpt>
      <trkpt lat="43.63629" lon="6.79361">
        <ele>160.64</ele>
        <time>2015-05-07T10:23:17Z</time>
      </trkpt>
      <trkpt lat="43.63617" lon="6.79341">
        <ele>159.22</ele>
        <time>2015-05-07T10:23:38Z</time>
      </trkpt>
      <trkpt lat="43.63606" lon="6.79322">
        <ele>158.6</ele>
        <time>2015-05-07T10:23:57Z</time>
      </trkpt>
      <trkpt lat="43.63591" lon="6.79307">
        <ele>158.98</ele>
        <time>2015-05-07T10:24:24Z</time>
      </trkpt>
      <trkpt lat="43.63572" lon="6.79301">
        <ele>159.42</ele>
        <time>2015-05-07T10:24:34Z</time>
      </trkpt>
      <trkpt lat="43.63555" lon="6.79293">
        <ele>159.41</ele>
        <time>2015-05-07T10:24:44Z</time>
      </trkpt>
      <trkpt lat="43.63539" lon="6.79279">
        <ele>160.98</ele>
        <time>2015-05-07T10:24:57Z</time>
      </trkpt>
      <trkpt lat="43.63524" lon="6.79266">
        <ele>163.14</ele>
        <time>2015-05-07T10:25:16Z</time>
      </trkpt>
      <trkpt lat="43.63506" lon="6.79255">
        <ele>164.36</ele>
        <time>2015-05-07T10:25:43Z</time>
      </trkpt>
      <trkpt lat="43.6349" lon="6.79239">
        <ele>164.1</ele>
        <time>2015-05-07T10:26:10Z</time>
      </trkpt>
      <trkpt lat="43.63474" lon="6.79225">
        <ele>165.02</ele>
        <time>2015-05-07T10:26:36Z</time>
      </trkpt>
      <trkpt lat="43.6346" lon="6.79208">
        <ele>164.17</ele>
        <time>2015-05-07T10:26:53Z</time>
      </trkpt>
      <trkpt lat="43.63444" lon="6.79196">
        <ele>164.33</ele>
        <time>2015-05-07T10:27:35Z</time>
      </trkpt>
      <trkpt lat="43.63425" lon="6.79189">
        <ele>165.16</ele>
        <time>2015-05-07T10:28:06Z</time>
      </trkpt>
      <trkpt lat="43.63409" lon="6.79178">
        <ele>173.46</ele>
        <time>2015-05-07T10:28:34Z</time>
      </trkpt>
      <trkpt lat="43.63391" lon="6.79176">
        <ele>170.26</ele>
        <time>2015-05-07T10:28:58Z</time>
      </trkpt>
      <trkpt lat="43.63373" lon="6.79181">
        <ele>164.46</ele>
        <time>2015-05-07T10:29:15Z</time>
      </trkpt>
      <trkpt lat="43.63354" lon="6.79183">
        <ele>160.79</ele>
        <time>2015-05-07T10:29:33Z</time>
      </trkpt>
      <trkpt lat="43.63336" lon="6.79178">
        <ele>158.43</ele>
        <time>2015-05-07T10:29:53Z</time>
      </trkpt>
      <trkpt lat="43.63316" lon="6.79181">
        <ele>160.68</ele>
        <time>2015-05-07T10:30:12Z</time>
      </trkpt>
      <trkpt lat="43.63298" lon="6.79185">
        <ele>161.05</ele>
        <time>2015-05-07T10:30:24Z</time>
      </trkpt>
      <trkpt lat="43.63284" lon="6.79202">
        <ele>159.96</ele>
        <time>2015-05-07T10:30:39Z</time>
      </trkpt>
      <trkpt lat="43.63273" lon="6.79223">
        <ele>157.58</ele>
        <time>2015-05-07T10:30:51Z</time>
      </trkpt>
      <trkpt lat="43.63266" lon="6.79247">
        <ele>154.41</ele>
        <time>2015-05-07T10:31:06Z</time>
      </trkpt>
      <trkpt lat="43.63259" lon="6.79271">
        <ele>154.49</ele>
        <time>2015-05-07T10:31:20Z</time>
      </trkpt>
      <trkpt lat="43.63261" lon="6.79297">
        <ele>155.75</ele>
        <time>2015-05-07T10:31:37Z</time>
      </trkpt>
      <trkpt lat="43.63267" lon="6.7932">
        <ele>155.1</ele>
        <time>2015-05-07T10:31:54Z</time>
      </trkpt>
      <trkpt lat="43.63284" lon="6.79328">
        <ele>156.59</ele>
        <time>2015-05-07T10:33:17Z</time>
      </trkpt>
      <trkpt lat="43.63277" lon="6.79353">
        <ele>153.94</ele>
        <time>2015-05-07T10:34:07Z</time>
      </trkpt>
      <trkpt lat="43.63268" lon="6.79376">
        <ele>152.47</ele>
        <time>2015-05-07T10:34:25Z</time>
      </trkpt>
      <trkpt lat="43.63263" lon="6.79401">
        <ele>149</ele>
        <time>2015-05-07T10:34:40Z</time>
      </trkpt>
      <trkpt lat="43.63262" lon="6.79426">
        <ele>149.09</ele>
        <time>2015-05-07T10:34:56Z</time>
      </trkpt>
      <trkpt lat="43.63254" lon="6.79449">
        <ele>149.47</ele>
        <time>2015-05-07T10:35:15Z</time>
      </trkpt>
      <trkpt lat="43.63247" lon="6.79474">
        <ele>149.25</ele>
        <time>2015-05-07T10:35:32Z</time>
      </trkpt>
      <trkpt lat="43.63237" lon="6.79496">
        <ele>150.13</ele>
        <time>2015-05-07T10:35:53Z</time>
      </trkpt>
      <trkpt lat="43.63222" lon="6.7951">
        <ele>150.21</ele>
        <time>2015-05-07T10:36:08Z</time>
      </trkpt>
      <trkpt lat="43.63209" lon="6.79529">
        <ele>154.01</ele>
        <time>2015-05-07T10:36:32Z</time>
      </trkpt>
      <trkpt lat="43.63194" lon="6.79546">
        <ele>154.24</ele>
        <time>2015-05-07T10:36:43Z</time>
      </trkpt>
      <trkpt lat="43.63186" lon="6.79569">
        <ele>152.07</ele>
        <time>2015-05-07T10:37:05Z</time>
      </trkpt>
      <trkpt lat="43.63173" lon="6.79588">
        <ele>151.49</ele>
        <time>2015-05-07T10:37:22Z</time>
      </trkpt>
      <trkpt lat="43.63159" lon="6.79604">
        <ele>151.8</ele>
        <time>2015-05-07T10:37:49Z</time>
      </trkpt>
      <trkpt lat="43.6314" lon="6.79599">
        <ele>152.29</ele>
        <time>2015-05-07T10:38:06Z</time>
      </trkpt>
      <trkpt lat="43.63123" lon="6.79588">
        <ele>151.33</ele>
        <time>2015-05-07T10:38:23Z</time>
      </trkpt>
      <trkpt lat="43.63107" lon="6.79578">
        <ele>150.25</ele>
        <time>2015-05-07T10:38:41Z</time>
      </trkpt>
      <trkpt lat="43.63088" lon="6.79574">
        <ele>149.54</ele>
        <time>2015-05-07T10:38:59Z</time>
      </trkpt>
      <trkpt lat="43.63071" lon="6.79582">
        <ele>152.63</ele>
        <time>2015-05-07T10:39:30Z</time>
      </trkpt>
      <trkpt lat="43.63056" lon="6.79596">
        <ele>156.97</ele>
        <time>2015-05-07T10:39:45Z</time>
      </trkpt>
      <trkpt lat="43.63041" lon="6.7961">
        <ele>159.21</ele>
        <time>2015-05-07T10:40:04Z</time>
      </trkpt>
      <trkpt lat="43.63024" lon="6.79621">
        <ele>156.61</ele>
        <time>2015-05-07T10:40:21Z</time>
      </trkpt>
      <trkpt lat="43.63008" lon="6.79633">
        <ele>155.48</ele>
        <time>2015-05-07T10:40:35Z</time>
      </trkpt>
      <trkpt lat="43.62991" lon="6.79642">
        <ele>155.1</ele>
        <time>2015-05-07T10:40:50Z</time>
      </trkpt>
      <trkpt lat="43.62976" lon="6.79657">
        <ele>154.59</ele>
        <time>2015-05-07T10:41:07Z</time>
      </trkpt>
      <trkpt lat="43.62961" lon="6.79673">
        <ele>156.02</ele>
        <time>2015-05-07T10:41:23Z</time>
      </trkpt>
      <trkpt lat="43.62946" lon="6.79689">
        <ele>155.56</ele>
        <time>2015-05-07T10:41:38Z</time>
      </trkpt>
      <trkpt lat="43.62933" lon="6.79708">
        <ele>155.35</ele>
        <time>2015-05-07T10:41:55Z</time>
      </trkpt>
      <trkpt lat="43.62917" lon="6.7972">
        <ele>156.12</ele>
        <time>2015-05-07T10:42:12Z</time>
      </trkpt>
      <trkpt lat="43.62902" lon="6.79734">
        <ele>155.98</ele>
        <time>2015-05-07T10:42:28Z</time>
      </trkpt>
      <trkpt lat="43.62884" lon="6.79742">
        <ele>155.27</ele>
        <time>2015-05-07T10:42:45Z</time>
      </trkpt>
      <trkpt lat="43.62867" lon="6.7975">
        <ele>156.15</ele>
        <time>2015-05-07T10:43:01Z</time>
      </trkpt>
      <trkpt lat="43.62849" lon="6.79754">
        <ele>155.75</ele>
        <time>2015-05-07T10:43:16Z</time>
      </trkpt>
      <trkpt lat="43.62831" lon="6.79758">
        <ele>154.26</ele>
        <time>2015-05-07T10:43:30Z</time>
      </trkpt>
      <trkpt lat="43.62813" lon="6.79765">
        <ele>152.95</ele>
        <time>2015-05-07T10:43:48Z</time>
      </trkpt>
      <trkpt lat="43.62796" lon="6.79777">
        <ele>152.78</ele>
        <time>2015-05-07T10:44:03Z</time>
      </trkpt>
      <trkpt lat="43.62782" lon="6.79793">
        <ele>153.82</ele>
        <time>2015-05-07T10:44:17Z</time>
      </trkpt>
      <trkpt lat="43.62772" lon="6.79815">
        <ele>153.61</ele>
        <time>2015-05-07T10:44:33Z</time>
      </trkpt>
      <trkpt lat="43.62765" lon="6.79838">
        <ele>152.93</ele>
        <time>2015-05-07T10:44:48Z</time>
      </trkpt>
      <trkpt lat="43.62755" lon="6.7986">
        <ele>152.06</ele>
        <time>2015-05-07T10:45:07Z</time>
      </trkpt>
      <trkpt lat="43.62737" lon="6.79867">
        <ele>152.16</ele>
        <time>2015-05-07T10:45:30Z</time>
      </trkpt>
      <trkpt lat="43.62718" lon="6.7987">
        <ele>152.93</ele>
        <time>2015-05-07T10:45:46Z</time>
      </trkpt>
      <trkpt lat="43.62703" lon="6.79887">
        <ele>153.04</ele>
        <time>2015-05-07T10:46:14Z</time>
      </trkpt>
      <trkpt lat="43.62691" lon="6.79906">
        <ele>153.13</ele>
        <time>2015-05-07T10:46:29Z</time>
      </trkpt>
      <trkpt lat="43.62685" lon="6.79929">
        <ele>152.24</ele>
        <time>2015-05-07T10:46:49Z</time>
      </trkpt>
      <trkpt lat="43.62672" lon="6.79947">
        <ele>152.05</ele>
        <time>2015-05-07T10:47:03Z</time>
      </trkpt>
      <trkpt lat="43.62668" lon="6.79971">
        <ele>150.74</ele>
        <time>2015-05-07T10:47:32Z</time>
      </trkpt>
      <trkpt lat="43.62655" lon="6.79989">
        <ele>152.97</ele>
        <time>2015-05-07T10:50:36Z</time>
      </trkpt>
      <trkpt lat="43.62641" lon="6.80006">
        <ele>151.51</ele>
        <time>2015-05-07T10:51:03Z</time>
      </trkpt>
      <trkpt lat="43.62629" lon="6.80024">
        <ele>151.63</ele>
        <time>2015-05-07T10:51:21Z</time>
      </trkpt>
      <trkpt lat="43.62618" lon="6.80045">
        <ele>151.7</ele>
        <time>2015-05-07T10:51:40Z</time>
      </trkpt>
      <trkpt lat="43.62609" lon="6.80069">
        <ele>149.07</ele>
        <time>2015-05-07T10:52:02Z</time>
      </trkpt>
      <trkpt lat="43.62611" lon="6.80094">
        <ele>147.73</ele>
        <time>2015-05-07T10:52:21Z</time>
      </trkpt>
      <trkpt lat="43.62608" lon="6.80119">
        <ele>143.82</ele>
        <time>2015-05-07T10:52:43Z</time>
      </trkpt>
      <trkpt lat="43.62603" lon="6.80144">
        <ele>141.99</ele>
        <time>2015-05-07T10:53:03Z</time>
      </trkpt>
      <trkpt lat="43.62598" lon="6.80168">
        <ele>143.51</ele>
        <time>2015-05-07T10:53:21Z</time>
      </trkpt>
      <trkpt lat="43.62592" lon="6.80192">
        <ele>144.25</ele>
        <time>2015-05-07T10:53:39Z</time>
      </trkpt>
      <trkpt lat="43.62582" lon="6.80213">
        <ele>148.05</ele>
        <time>2015-05-07T10:54:14Z</time>
      </trkpt>
      <trkpt lat="43.62576" lon="6.80237">
        <ele>150.01</ele>
        <time>2015-05-07T10:54:41Z</time>
      </trkpt>
      <trkpt lat="43.62578" lon="6.80262">
        <ele>152.91</ele>
        <time>2015-05-07T10:55:01Z</time>
      </trkpt>
      <trkpt lat="43.6258" lon="6.80288">
        <ele>153.79</ele>
        <time>2015-05-07T10:55:22Z</time>
      </trkpt>
      <trkpt lat="43.62582" lon="6.80313">
        <ele>150.9</ele>
        <time>2015-05-07T10:55:41Z</time>
      </trkpt>
      <trkpt lat="43.62585" lon="6.80339">
        <ele>147.76</ele>
        <time>2015-05-07T10:55:59Z</time>
      </trkpt>
      <trkpt lat="43.6259" lon="6.80363">
        <ele>144.39</ele>
        <time>2015-05-07T10:56:17Z</time>
      </trkpt>
      <trkpt lat="43.62592" lon="6.80389">
        <ele>141.93</ele>
        <time>2015-05-07T10:56:38Z</time>
      </trkpt>
      <trkpt lat="43.62598" lon="6.80415">
        <ele>142.5</ele>
        <time>2015-05-07T10:56:56Z</time>
      </trkpt>
      <trkpt lat="43.62613" lon="6.80432">
        <ele>142.44</ele>
        <time>2015-05-07T10:57:11Z</time>
      </trkpt>
      <trkpt lat="43.62623" lon="6.80453">
        <ele>142.67</ele>
        <time>2015-05-07T10:57:28Z</time>
      </trkpt>
      <trkpt lat="43.62622" lon="6.80478">
        <ele>144.06</ele>
        <time>2015-05-07T10:57:50Z</time>
      </trkpt>
      <trkpt lat="43.62613" lon="6.805">
        <ele>144.56</ele>
        <time>2015-05-07T10:58:10Z</time>
      </trkpt>
      <trkpt lat="43.62606" lon="6.80525">
        <ele>144.24</ele>
        <time>2015-05-07T10:58:29Z</time>
      </trkpt>
      <trkpt lat="43.62604" lon="6.8055">
        <ele>143.4</ele>
        <time>2015-05-07T10:58:46Z</time>
      </trkpt>
      <trkpt lat="43.62608" lon="6.80576">
        <ele>143.37</ele>
        <time>2015-05-07T10:59:03Z</time>
      </trkpt>
      <trkpt lat="43.6261" lon="6.80603">
        <ele>144.75</ele>
        <time>2015-05-07T10:59:19Z</time>
      </trkpt>
      <trkpt lat="43.62618" lon="6.80626">
        <ele>147.54</ele>
        <time>2015-05-07T10:59:34Z</time>
      </trkpt>
      <trkpt lat="43.62628" lon="6.80647">
        <ele>149.7</ele>
        <time>2015-05-07T10:59:51Z</time>
      </trkpt>
      <trkpt lat="43.62641" lon="6.80664">
        <ele>151.99</ele>
        <time>2015-05-07T11:00:10Z</time>
      </trkpt>
      <trkpt lat="43.62647" lon="6.80689">
        <ele>151.12</ele>
        <time>2015-05-07T11:00:36Z</time>
      </trkpt>
      <trkpt lat="43.62657" lon="6.80712">
        <ele>149.33</ele>
        <time>2015-05-07T11:01:05Z</time>
      </trkpt>
      <trkpt lat="43.62661" lon="6.80736">
        <ele>148.36</ele>
        <time>2015-05-07T11:01:22Z</time>
      </trkpt>
      <trkpt lat="43.62671" lon="6.80758">
        <ele>146.28</ele>
        <time>2015-05-07T11:01:40Z</time>
      </trkpt>
      <trkpt lat="43.62678" lon="6.80781">
        <ele>144.07</ele>
        <time>2015-05-07T11:01:57Z</time>
      </trkpt>
      <trkpt lat="43.62686" lon="6.80805">
        <ele>143.28</ele>
        <time>2015-05-07T11:02:14Z</time>
      </trkpt>
      <trkpt lat="43.62701" lon="6.8082">
        <ele>141.8</ele>
        <time>2015-05-07T11:02:34Z</time>
      </trkpt>
      <trkpt lat="43.62718" lon="6.8083">
        <ele>141.61</ele>
        <time>2015-05-07T11:02:50Z</time>
      </trkpt>
      <trkpt lat="43.62736" lon="6.80836">
        <ele>140.56</ele>
        <time>2015-05-07T11:03:07Z</time>
      </trkpt>
      <trkpt lat="43.62751" lon="6.80852">
        <ele>143</ele>
        <time>2015-05-07T11:03:44Z</time>
      </trkpt>
      <trkpt lat="43.62761" lon="6.80873">
        <ele>151.35</ele>
        <time>2015-05-07T11:04:15Z</time>
      </trkpt>
      <trkpt lat="43.62768" lon="6.80897">
        <ele>153.74</ele>
        <time>2015-05-07T11:05:32Z</time>
      </trkpt>
      <trkpt lat="43.62759" lon="6.8092">
        <ele>154.88</ele>
        <time>2015-05-07T11:07:29Z</time>
      </trkpt>
      <trkpt lat="43.62753" lon="6.80944">
        <ele>155.47</ele>
        <time>2015-05-07T11:07:52Z</time>
      </trkpt>
      <trkpt lat="43.6276" lon="6.80969">
        <ele>155.99</ele>
        <time>2015-05-07T11:08:15Z</time>
      </trkpt>
      <trkpt lat="43.62766" lon="6.80993">
        <ele>153.12</ele>
        <time>2015-05-07T11:08:36Z</time>
      </trkpt>
      <trkpt lat="43.62774" lon="6.81016">
        <ele>152.26</ele>
        <time>2015-05-07T11:08:53Z</time>
      </trkpt>
      <trkpt lat="43.62771" lon="6.81041">
        <ele>152.8</ele>
        <time>2015-05-07T11:09:13Z</time>
      </trkpt>
      <trkpt lat="43.62777" lon="6.81065">
        <ele>156.31</ele>
        <time>2015-05-07T11:09:35Z</time>
      </trkpt>
      <trkpt lat="43.62784" lon="6.81088">
        <ele>158.26</ele>
        <time>2015-05-07T11:10:01Z</time>
      </trkpt>
      <trkpt lat="43.62799" lon="6.81104">
        <ele>158.2</ele>
        <time>2015-05-07T11:10:15Z</time>
      </trkpt>
      <trkpt lat="43.62806" lon="6.81127">
        <ele>167.55</ele>
        <time>2015-05-07T11:12:45Z</time>
      </trkpt>
      <trkpt lat="43.62809" lon="6.81152">
        <ele>166.68</ele>
        <time>2015-05-07T11:13:37Z</time>
      </trkpt>
      <trkpt lat="43.62814" lon="6.81177">
        <ele>165.79</ele>
        <time>2015-05-07T11:13:54Z</time>
      </trkpt>
      <trkpt lat="43.62819" lon="6.81201">
        <ele>163.91</ele>
        <time>2015-05-07T11:15:05Z</time>
      </trkpt>
      <trkpt lat="43.628" lon="6.81202">
        <ele>172.18</ele>
        <time>2015-05-07T11:17:37Z</time>
      </trkpt>
      <trkpt lat="43.62782" lon="6.8121">
        <ele>173.68</ele>
        <time>2015-05-07T11:17:56Z</time>
      </trkpt>
      <trkpt lat="43.6277" lon="6.81228">
        <ele>174.01</ele>
        <time>2015-05-07T11:18:10Z</time>
      </trkpt>
      <trkpt lat="43.62759" lon="6.81249">
        <ele>173.25</ele>
        <time>2015-05-07T11:18:38Z</time>
      </trkpt>
      <trkpt lat="43.62749" lon="6.8127">
        <ele>172.18</ele>
        <time>2015-05-07T11:18:59Z</time>
      </trkpt>
      <trkpt lat="43.62738" lon="6.8129">
        <ele>171.41</ele>
        <time>2015-05-07T11:19:15Z</time>
      </trkpt>
      <trkpt lat="43.62729" lon="6.81315">
        <ele>169.28</ele>
        <time>2015-05-07T11:19:32Z</time>
      </trkpt>
      <trkpt lat="43.6273" lon="6.8134">
        <ele>168.39</ele>
        <time>2015-05-07T11:19:45Z</time>
      </trkpt>
      <trkpt lat="43.62726" lon="6.81364">
        <ele>167.8</ele>
        <time>2015-05-07T11:20:05Z</time>
      </trkpt>
      <trkpt lat="43.62729" lon="6.8139">
        <ele>168.68</ele>
        <time>2015-05-07T11:20:30Z</time>
      </trkpt>
      <trkpt lat="43.62728" lon="6.81416">
        <ele>173.07</ele>
        <time>2015-05-07T11:21:10Z</time>
      </trkpt>
      <trkpt lat="43.62724" lon="6.8144">
        <ele>173.28</ele>
        <time>2015-05-07T11:21:28Z</time>
      </trkpt>
      <trkpt lat="43.62723" lon="6.81466">
        <ele>175.91</ele>
        <time>2015-05-07T11:21:49Z</time>
      </trkpt>
      <trkpt lat="43.62718" lon="6.8149">
        <ele>180.33</ele>
        <time>2015-05-07T11:22:51Z</time>
      </trkpt>
      <trkpt lat="43.62699" lon="6.81495">
        <ele>178.75</ele>
        <time>2015-05-07T11:23:30Z</time>
      </trkpt>
      <trkpt lat="43.62683" lon="6.81508">
        <ele>176.07</ele>
        <time>2015-05-07T11:23:52Z</time>
      </trkpt>
      <trkpt lat="43.6267" lon="6.81526">
        <ele>171.9</ele>
        <time>2015-05-07T11:24:07Z</time>
      </trkpt>
      <trkpt lat="43.62655" lon="6.81542">
        <ele>168.51</ele>
        <time>2015-05-07T11:24:28Z</time>
      </trkpt>
      <trkpt lat="43.6264" lon="6.81557">
        <ele>164.97</ele>
        <time>2015-05-07T11:24:45Z</time>
      </trkpt>
      <trkpt lat="43.62635" lon="6.81582">
        <ele>161.66</ele>
        <time>2015-05-07T11:25:03Z</time>
      </trkpt>
      <trkpt lat="43.6264" lon="6.81606">
        <ele>159.16</ele>
        <time>2015-05-07T11:25:58Z</time>
      </trkpt>
      <trkpt lat="43.62634" lon="6.81631">
        <ele>157.83</ele>
        <time>2015-05-07T11:26:33Z</time>
      </trkpt>
      <trkpt lat="43.62627" lon="6.81655">
        <ele>157.08</ele>
        <time>2015-05-07T11:27:02Z</time>
      </trkpt>
      <trkpt lat="43.62616" lon="6.81673">
        <ele>154.62</ele>
        <time>2015-05-07T11:27:26Z</time>
      </trkpt>
      <trkpt lat="43.62625" lon="6.81695">
        <ele>148.06</ele>
        <time>2015-05-07T11:28:22Z</time>
      </trkpt>
      <trkpt lat="43.6264" lon="6.81709">
        <ele>138.55</ele>
        <time>2015-05-07T11:30:14Z</time>
      </trkpt>
      <trkpt lat="43.62658" lon="6.81704">
        <ele>134.18</ele>
        <time>2015-05-07T11:30:46Z</time>
      </trkpt>
      <trkpt lat="43.6267" lon="6.81722">
        <ele>133.24</ele>
        <time>2015-05-07T11:31:32Z</time>
      </trkpt>
      <trkpt lat="43.62686" lon="6.81735">
        <ele>128.38</ele>
        <time>2015-05-07T11:32:16Z</time>
      </trkpt>
      <trkpt lat="43.62704" lon="6.81734">
        <ele>121.59</ele>
        <time>2015-05-07T11:32:47Z</time>
      </trkpt>
      <trkpt lat="43.62696" lon="6.81757">
        <ele>117.42</ele>
        <time>2015-05-07T11:33:46Z</time>
      </trkpt>
      <trkpt lat="43.62687" lon="6.81778">
        <ele>114.26</ele>
        <time>2015-05-07T11:34:18Z</time>
      </trkpt>
      <trkpt lat="43.62695" lon="6.818">
        <ele>107.39</ele>
        <time>2015-05-07T11:35:00Z</time>
      </trkpt>
      <trkpt lat="43.62713" lon="6.81808">
        <ele>104.66</ele>
        <time>2015-05-07T11:35:24Z</time>
      </trkpt>
      <trkpt lat="43.62729" lon="6.81795">
        <ele>106.33</ele>
        <time>2015-05-07T11:35:38Z</time>
      </trkpt>
      <trkpt lat="43.62742" lon="6.81775">
        <ele>104.7</ele>
        <time>2015-05-07T11:35:54Z</time>
      </trkpt>
      <trkpt lat="43.62755" lon="6.81757">
        <ele>100.71</ele>
        <time>2015-05-07T11:36:16Z</time>
      </trkpt>
    </trkseg>
  </trk>
</gpx>